sensor_id;sensor_type;location;lat;lon;timestamp;P1;durP1;ratioP1;P2;durP2;ratioP2
75050;SDS011;63628;47.656;11.310;2023-12-20T00:01:52;3.73;;;2.00;;
75050;SDS011;63628;47.656;11.310;2023-12-20T00:04:19;4.57;;;2.63;;
75050;SDS011;63628;47.656;11.310;2023-12-20T00:06:46;4.37;;;2.50;;
75050;SDS011;63628;47.656;11.310;2023-12-20T00:09:13;2.73;;;1.83;;
75050;SDS011;63628;47.656;11.310;2023-12-20T00:11:40;4.23;;;2.07;;
75050;SDS011;63628;47.656;11.310;2023-12-20T00:14:08;4.68;;;2.15;;
75050;SDS011;63628;47.656;11.310;2023-12-20T00:16:35;5.77;;;2.77;;
75050;SDS011;63628;47.656;11.310;2023-12-20T00:19:01;3.87;;;2.17;;
75050;SDS011;63628;47.656;11.310;2023-12-20T00:21:28;4.43;;;2.30;;
75050;SDS011;63628;47.656;11.310;2023-12-20T00:23:55;4.53;;;2.13;;
75050;SDS011;63628;47.656;11.310;2023-12-20T00:26:21;3.47;;;2.10;;
75050;SDS011;63628;47.656;11.310;2023-12-20T00:28:49;4.47;;;2.23;;
75050;SDS011;63628;47.656;11.310;2023-12-20T00:31:16;3.77;;;2.10;;
75050;SDS011;63628;47.656;11.310;2023-12-20T00:33:43;4.47;;;2.07;;
75050;SDS011;63628;47.656;11.310;2023-12-20T00:36:10;3.67;;;2.13;;
75050;SDS011;63628;47.656;11.310;2023-12-20T00:38:37;4.07;;;2.30;;
75050;SDS011;63628;47.656;11.310;2023-12-20T00:41:03;3.70;;;1.77;;
75050;SDS011;63628;47.656;11.310;2023-12-20T00:43:30;4.33;;;1.80;;
75050;SDS011;63628;47.656;11.310;2023-12-20T00:45:58;2.67;;;1.67;;
75050;SDS011;63628;47.656;11.310;2023-12-20T00:48:26;4.88;;;2.05;;
75050;SDS011;63628;47.656;11.310;2023-12-20T00:50:53;3.30;;;1.70;;
75050;SDS011;63628;47.656;11.310;2023-12-20T00:53:20;4.77;;;2.10;;
75050;SDS011;63628;47.656;11.310;2023-12-20T00:55:46;3.33;;;1.90;;
75050;SDS011;63628;47.656;11.310;2023-12-20T00:58:13;3.87;;;2.27;;
75050;SDS011;63628;47.656;11.310;2023-12-20T01:00:42;3.07;;;1.80;;
75050;SDS011;63628;47.656;11.310;2023-12-20T01:03:11;2.27;;;1.47;;
75050;SDS011;63628;47.656;11.310;2023-12-20T01:05:38;4.40;;;2.07;;
75050;SDS011;63628;47.656;11.310;2023-12-20T01:08:05;2.53;;;1.47;;
75050;SDS011;63628;47.656;11.310;2023-12-20T01:10:32;3.47;;;1.67;;
75050;SDS011;63628;47.656;11.310;2023-12-20T01:12:59;3.53;;;1.80;;
75050;SDS011;63628;47.656;11.310;2023-12-20T01:15:25;3.47;;;1.70;;
75050;SDS011;63628;47.656;11.310;2023-12-20T01:17:52;4.13;;;2.00;;
75050;SDS011;63628;47.656;11.310;2023-12-20T01:20:20;3.73;;;1.90;;
75050;SDS011;63628;47.656;11.310;2023-12-20T01:22:47;3.17;;;1.77;;
75050;SDS011;63628;47.656;11.310;2023-12-20T01:25:13;3.80;;;1.67;;
75050;SDS011;63628;47.656;11.310;2023-12-20T01:27:40;3.30;;;1.90;;
75050;SDS011;63628;47.656;11.310;2023-12-20T01:30:07;3.53;;;1.83;;
75050;SDS011;63628;47.656;11.310;2023-12-20T01:32:34;3.30;;;1.80;;
75050;SDS011;63628;47.656;11.310;2023-12-20T01:35:01;5.43;;;2.53;;
75050;SDS011;63628;47.656;11.310;2023-12-20T01:37:30;5.43;;;3.03;;
75050;SDS011;63628;47.656;11.310;2023-12-20T01:39:57;5.07;;;2.40;;
75050;SDS011;63628;47.656;11.310;2023-12-20T01:42:25;5.83;;;2.77;;
75050;SDS011;63628;47.656;11.310;2023-12-20T01:44:51;3.23;;;1.60;;
75050;SDS011;63628;47.656;11.310;2023-12-20T01:47:18;4.77;;;2.00;;
75050;SDS011;63628;47.656;11.310;2023-12-20T01:49:44;2.47;;;1.50;;
75050;SDS011;63628;47.656;11.310;2023-12-20T01:52:11;2.93;;;1.70;;
75050;SDS011;63628;47.656;11.310;2023-12-20T01:54:40;2.83;;;1.70;;
75050;SDS011;63628;47.656;11.310;2023-12-20T01:57:09;2.25;;;1.50;;
75050;SDS011;63628;47.656;11.310;2023-12-20T01:59:36;2.90;;;1.60;;
75050;SDS011;63628;47.656;11.310;2023-12-20T02:02:05;2.60;;;1.67;;
75050;SDS011;63628;47.656;11.310;2023-12-20T02:04:33;3.70;;;1.63;;
75050;SDS011;63628;47.656;11.310;2023-12-20T02:07:00;2.87;;;1.80;;
75050;SDS011;63628;47.656;11.310;2023-12-20T02:09:29;2.20;;;1.42;;
75050;SDS011;63628;47.656;11.310;2023-12-20T02:11:57;2.93;;;1.80;;
75050;SDS011;63628;47.656;11.310;2023-12-20T02:14:25;2.87;;;1.50;;
75050;SDS011;63628;47.656;11.310;2023-12-20T02:16:51;3.13;;;1.63;;
75050;SDS011;63628;47.656;11.310;2023-12-20T02:19:18;2.93;;;1.70;;
75050;SDS011;63628;47.656;11.310;2023-12-20T02:21:48;3.00;;;1.60;;
75050;SDS011;63628;47.656;11.310;2023-12-20T02:24:15;2.83;;;1.83;;
75050;SDS011;63628;47.656;11.310;2023-12-20T02:26:41;2.23;;;1.60;;
75050;SDS011;63628;47.656;11.310;2023-12-20T02:29:12;3.43;;;1.63;;
75050;SDS011;63628;47.656;11.310;2023-12-20T02:31:39;4.00;;;1.73;;
75050;SDS011;63628;47.656;11.310;2023-12-20T02:34:05;7.47;;;1.93;;
75050;SDS011;63628;47.656;11.310;2023-12-20T02:36:32;2.70;;;1.67;;
75050;SDS011;63628;47.656;11.310;2023-12-20T02:39:00;2.53;;;1.47;;
75050;SDS011;63628;47.656;11.310;2023-12-20T02:41:27;2.67;;;1.57;;
75050;SDS011;63628;47.656;11.310;2023-12-20T02:43:53;3.53;;;2.00;;
75050;SDS011;63628;47.656;11.310;2023-12-20T02:46:20;3.87;;;1.70;;
75050;SDS011;63628;47.656;11.310;2023-12-20T02:48:47;2.90;;;1.80;;
75050;SDS011;63628;47.656;11.310;2023-12-20T02:51:14;1.80;;;1.30;;
75050;SDS011;63628;47.656;11.310;2023-12-20T02:53:41;1.73;;;1.30;;
75050;SDS011;63628;47.656;11.310;2023-12-20T02:56:09;2.37;;;1.50;;
75050;SDS011;63628;47.656;11.310;2023-12-20T02:58:35;3.13;;;1.60;;
75050;SDS011;63628;47.656;11.310;2023-12-20T03:01:02;2.47;;;1.43;;
75050;SDS011;63628;47.656;11.310;2023-12-20T03:03:29;2.93;;;1.67;;
75050;SDS011;63628;47.656;11.310;2023-12-20T03:05:56;3.10;;;1.70;;
75050;SDS011;63628;47.656;11.310;2023-12-20T03:08:22;3.57;;;1.50;;
75050;SDS011;63628;47.656;11.310;2023-12-20T03:10:49;3.00;;;1.60;;
75050;SDS011;63628;47.656;11.310;2023-12-20T03:13:17;2.73;;;1.67;;
75050;SDS011;63628;47.656;11.310;2023-12-20T03:15:44;3.23;;;1.90;;
75050;SDS011;63628;47.656;11.310;2023-12-20T03:18:11;2.17;;;1.50;;
75050;SDS011;63628;47.656;11.310;2023-12-20T03:20:38;3.73;;;1.60;;
75050;SDS011;63628;47.656;11.310;2023-12-20T03:23:04;3.40;;;1.50;;
75050;SDS011;63628;47.656;11.310;2023-12-20T03:25:31;3.07;;;1.70;;
75050;SDS011;63628;47.656;11.310;2023-12-20T03:27:59;2.10;;;1.30;;
75050;SDS011;63628;47.656;11.310;2023-12-20T03:30:27;3.37;;;1.60;;
75050;SDS011;63628;47.656;11.310;2023-12-20T03:32:53;2.93;;;1.47;;
75050;SDS011;63628;47.656;11.310;2023-12-20T03:35:20;2.17;;;1.50;;
75050;SDS011;63628;47.656;11.310;2023-12-20T03:37:47;2.53;;;1.40;;
75050;SDS011;63628;47.656;11.310;2023-12-20T03:40:13;2.53;;;1.40;;
75050;SDS011;63628;47.656;11.310;2023-12-20T03:42:40;2.77;;;1.40;;
75050;SDS011;63628;47.656;11.310;2023-12-20T03:45:07;2.77;;;1.73;;
75050;SDS011;63628;47.656;11.310;2023-12-20T03:47:36;2.37;;;1.83;;
75050;SDS011;63628;47.656;11.310;2023-12-20T03:50:03;1.93;;;1.50;;
75050;SDS011;63628;47.656;11.310;2023-12-20T03:52:31;2.10;;;1.40;;
75050;SDS011;63628;47.656;11.310;2023-12-20T03:54:57;2.30;;;1.50;;
75050;SDS011;63628;47.656;11.310;2023-12-20T03:57:24;1.70;;;1.10;;
75050;SDS011;63628;47.656;11.310;2023-12-20T03:59:51;2.70;;;1.90;;
75050;SDS011;63628;47.656;11.310;2023-12-20T04:02:17;2.87;;;1.67;;
75050;SDS011;63628;47.656;11.310;2023-12-20T04:04:45;3.20;;;1.37;;
75050;SDS011;63628;47.656;11.310;2023-12-20T04:07:12;3.00;;;1.50;;
75050;SDS011;63628;47.656;11.310;2023-12-20T04:09:40;2.43;;;1.60;;
75050;SDS011;63628;47.656;11.310;2023-12-20T04:12:07;2.27;;;1.37;;
75050;SDS011;63628;47.656;11.310;2023-12-20T04:14:33;2.63;;;1.70;;
75050;SDS011;63628;47.656;11.310;2023-12-20T04:17:00;3.37;;;1.60;;
75050;SDS011;63628;47.656;11.310;2023-12-20T04:19:27;2.40;;;1.40;;
75050;SDS011;63628;47.656;11.310;2023-12-20T04:21:55;3.47;;;1.47;;
75050;SDS011;63628;47.656;11.310;2023-12-20T04:24:21;2.27;;;1.30;;
75050;SDS011;63628;47.656;11.310;2023-12-20T04:26:48;2.30;;;1.47;;
75050;SDS011;63628;47.656;11.310;2023-12-20T04:29:15;3.57;;;1.73;;
75050;SDS011;63628;47.656;11.310;2023-12-20T04:31:42;2.00;;;1.40;;
75050;SDS011;63628;47.656;11.310;2023-12-20T04:34:08;2.00;;;1.50;;
75050;SDS011;63628;47.656;11.310;2023-12-20T04:36:35;2.37;;;1.50;;
75050;SDS011;63628;47.656;11.310;2023-12-20T04:39:03;2.37;;;1.13;;
75050;SDS011;63628;47.656;11.310;2023-12-20T04:41:30;2.53;;;1.40;;
75050;SDS011;63628;47.656;11.310;2023-12-20T04:43:56;2.47;;;1.50;;
75050;SDS011;63628;47.656;11.310;2023-12-20T04:46:23;2.43;;;1.60;;
75050;SDS011;63628;47.656;11.310;2023-12-20T04:48:50;2.33;;;1.20;;
75050;SDS011;63628;47.656;11.310;2023-12-20T04:51:17;1.90;;;1.20;;
75050;SDS011;63628;47.656;11.310;2023-12-20T04:53:43;3.00;;;1.73;;
75050;SDS011;63628;47.656;11.310;2023-12-20T04:56:12;3.90;;;1.83;;
75050;SDS011;63628;47.656;11.310;2023-12-20T04:58:38;2.20;;;1.50;;
75050;SDS011;63628;47.656;11.310;2023-12-20T05:01:05;4.30;;;2.10;;
75050;SDS011;63628;47.656;11.310;2023-12-20T05:03:33;1.63;;;1.30;;
75050;SDS011;63628;47.656;11.310;2023-12-20T05:05:59;2.90;;;1.80;;
75050;SDS011;63628;47.656;11.310;2023-12-20T05:08:26;2.33;;;1.40;;
75050;SDS011;63628;47.656;11.310;2023-12-20T05:10:53;2.17;;;1.03;;
75050;SDS011;63628;47.656;11.310;2023-12-20T05:13:21;1.93;;;1.60;;
75050;SDS011;63628;47.656;11.310;2023-12-20T05:15:51;2.87;;;1.50;;
75050;SDS011;63628;47.656;11.310;2023-12-20T05:18:18;2.53;;;1.30;;
75050;SDS011;63628;47.656;11.310;2023-12-20T05:20:45;2.17;;;1.40;;
75050;SDS011;63628;47.656;11.310;2023-12-20T05:23:12;1.90;;;1.20;;
75050;SDS011;63628;47.656;11.310;2023-12-20T05:25:39;1.57;;;1.03;;
75050;SDS011;63628;47.656;11.310;2023-12-20T05:28:06;2.00;;;1.67;;
75050;SDS011;63628;47.656;11.310;2023-12-20T05:30:34;3.20;;;1.30;;
75050;SDS011;63628;47.656;11.310;2023-12-20T05:33:01;2.40;;;1.60;;
75050;SDS011;63628;47.656;11.310;2023-12-20T05:35:27;4.30;;;1.80;;
75050;SDS011;63628;47.656;11.310;2023-12-20T05:37:54;1.93;;;1.30;;
75050;SDS011;63628;47.656;11.310;2023-12-20T05:40:21;3.00;;;1.43;;
75050;SDS011;63628;47.656;11.310;2023-12-20T05:42:48;2.47;;;1.50;;
75050;SDS011;63628;47.656;11.310;2023-12-20T05:45:14;3.67;;;1.80;;
75050;SDS011;63628;47.656;11.310;2023-12-20T05:47:42;1.93;;;1.20;;
75050;SDS011;63628;47.656;11.310;2023-12-20T05:50:09;1.63;;;1.13;;
75050;SDS011;63628;47.656;11.310;2023-12-20T05:52:36;2.73;;;1.47;;
75050;SDS011;63628;47.656;11.310;2023-12-20T05:55:03;2.40;;;1.63;;
75050;SDS011;63628;47.656;11.310;2023-12-20T05:57:30;2.60;;;1.53;;
75050;SDS011;63628;47.656;11.310;2023-12-20T05:59:57;2.20;;;1.40;;
75050;SDS011;63628;47.656;11.310;2023-12-20T06:02:24;18.00;;;10.13;;
75050;SDS011;63628;47.656;11.310;2023-12-20T06:04:52;4.00;;;2.63;;
75050;SDS011;63628;47.656;11.310;2023-12-20T06:07:19;9.83;;;6.80;;
75050;SDS011;63628;47.656;11.310;2023-12-20T06:09:45;6.53;;;4.00;;
75050;SDS011;63628;47.656;11.310;2023-12-20T06:12:12;3.27;;;2.33;;
75050;SDS011;63628;47.656;11.310;2023-12-20T06:14:39;2.23;;;1.70;;
75050;SDS011;63628;47.656;11.310;2023-12-20T06:17:06;2.23;;;1.30;;
75050;SDS011;63628;47.656;11.310;2023-12-20T06:19:33;2.30;;;0.80;;
75050;SDS011;63628;47.656;11.310;2023-12-20T06:22:01;0.80;;;0.57;;
75050;SDS011;63628;47.656;11.310;2023-12-20T06:24:27;1.10;;;1.00;;
75050;SDS011;63628;47.656;11.310;2023-12-20T06:26:54;1.37;;;1.03;;
75050;SDS011;63628;47.656;11.310;2023-12-20T06:29:21;2.47;;;1.23;;
75050;SDS011;63628;47.656;11.310;2023-12-20T06:31:49;1.77;;;0.80;;
75050;SDS011;63628;47.656;11.310;2023-12-20T06:34:15;2.97;;;1.00;;
75050;SDS011;63628;47.656;11.310;2023-12-20T06:36:42;1.83;;;0.70;;
75050;SDS011;63628;47.656;11.310;2023-12-20T06:39:10;0.90;;;0.80;;
75050;SDS011;63628;47.656;11.310;2023-12-20T06:41:38;1.95;;;0.90;;
75050;SDS011;63628;47.656;11.310;2023-12-20T06:44:05;1.40;;;0.83;;
75050;SDS011;63628;47.656;11.310;2023-12-20T06:46:32;1.90;;;1.03;;
75050;SDS011;63628;47.656;11.310;2023-12-20T06:48:59;1.20;;;0.90;;
75050;SDS011;63628;47.656;11.310;2023-12-20T06:51:25;1.20;;;0.80;;
75050;SDS011;63628;47.656;11.310;2023-12-20T06:53:52;0.70;;;0.50;;
75050;SDS011;63628;47.656;11.310;2023-12-20T06:56:20;0.67;;;0.60;;
75050;SDS011;63628;47.656;11.310;2023-12-20T06:58:47;1.50;;;0.97;;
75050;SDS011;63628;47.656;11.310;2023-12-20T07:01:14;1.30;;;1.10;;
75050;SDS011;63628;47.656;11.310;2023-12-20T07:03:41;1.00;;;0.70;;
75050;SDS011;63628;47.656;11.310;2023-12-20T07:06:08;1.20;;;0.70;;
75050;SDS011;63628;47.656;11.310;2023-12-20T07:08:35;0.50;;;0.30;;
75050;SDS011;63628;47.656;11.310;2023-12-20T07:11:02;1.00;;;0.70;;
75050;SDS011;63628;47.656;11.310;2023-12-20T07:13:30;0.60;;;0.33;;
75050;SDS011;63628;47.656;11.310;2023-12-20T07:15:57;0.80;;;0.30;;
75050;SDS011;63628;47.656;11.310;2023-12-20T07:18:24;0.60;;;0.47;;
75050;SDS011;63628;47.656;11.310;2023-12-20T07:20:51;1.80;;;1.20;;
75050;SDS011;63628;47.656;11.310;2023-12-20T07:23:18;0.70;;;0.40;;
75050;SDS011;63628;47.656;11.310;2023-12-20T07:25:46;0.40;;;0.30;;
75050;SDS011;63628;47.656;11.310;2023-12-20T07:28:13;1.13;;;0.80;;
75050;SDS011;63628;47.656;11.310;2023-12-20T07:30:41;0.77;;;0.23;;
75050;SDS011;63628;47.656;11.310;2023-12-20T07:33:08;1.10;;;0.30;;
75050;SDS011;63628;47.656;11.310;2023-12-20T07:35:36;0.83;;;0.50;;
75050;SDS011;63628;47.656;11.310;2023-12-20T07:38:03;1.73;;;0.87;;
75050;SDS011;63628;47.656;11.310;2023-12-20T07:40:30;1.20;;;0.73;;
75050;SDS011;63628;47.656;11.310;2023-12-20T07:42:56;0.87;;;0.47;;
75050;SDS011;63628;47.656;11.310;2023-12-20T07:45:24;1.17;;;0.90;;
75050;SDS011;63628;47.656;11.310;2023-12-20T07:47:52;9.77;;;4.93;;
75050;SDS011;63628;47.656;11.310;2023-12-20T07:50:20;12.07;;;5.97;;
75050;SDS011;63628;47.656;11.310;2023-12-20T07:52:46;1.50;;;0.73;;
75050;SDS011;63628;47.656;11.310;2023-12-20T07:55:13;4.17;;;1.77;;
75050;SDS011;63628;47.656;11.310;2023-12-20T07:57:40;3.07;;;1.27;;
75050;SDS011;63628;47.656;11.310;2023-12-20T08:00:07;2.17;;;1.00;;
75050;SDS011;63628;47.656;11.310;2023-12-20T08:02:34;3.73;;;2.00;;
75050;SDS011;63628;47.656;11.310;2023-12-20T08:05:02;4.73;;;2.07;;
75050;SDS011;63628;47.656;11.310;2023-12-20T08:07:29;2.90;;;1.47;;
75050;SDS011;63628;47.656;11.310;2023-12-20T08:09:56;1.47;;;0.80;;
75050;SDS011;63628;47.656;11.310;2023-12-20T08:12:23;1.00;;;0.70;;
75050;SDS011;63628;47.656;11.310;2023-12-20T08:14:50;1.17;;;0.80;;
75050;SDS011;63628;47.656;11.310;2023-12-20T08:17:16;1.70;;;0.87;;
75050;SDS011;63628;47.656;11.310;2023-12-20T08:19:45;1.83;;;1.20;;
75050;SDS011;63628;47.656;11.310;2023-12-20T08:22:13;3.63;;;1.47;;
75050;SDS011;63628;47.656;11.310;2023-12-20T08:24:40;3.00;;;1.33;;
75050;SDS011;63628;47.656;11.310;2023-12-20T08:27:07;1.27;;;0.70;;
75050;SDS011;63628;47.656;11.310;2023-12-20T08:29:33;0.10;;;0.10;;
75050;SDS011;63628;47.656;11.310;2023-12-20T08:32:00;2.20;;;1.03;;
75050;SDS011;63628;47.656;11.310;2023-12-20T08:34:27;0.20;;;0.13;;
75050;SDS011;63628;47.656;11.310;2023-12-20T08:36:54;0.30;;;0.10;;
75050;SDS011;63628;47.656;11.310;2023-12-20T08:39:22;0.20;;;0.10;;
75050;SDS011;63628;47.656;11.310;2023-12-20T08:41:48;2.13;;;1.00;;
75050;SDS011;63628;47.656;11.310;2023-12-20T08:44:15;2.70;;;0.87;;
75050;SDS011;63628;47.656;11.310;2023-12-20T08:46:42;1.50;;;0.90;;
75050;SDS011;63628;47.656;11.310;2023-12-20T08:49:09;0.73;;;0.40;;
75050;SDS011;63628;47.656;11.310;2023-12-20T08:51:36;0.40;;;0.30;;
75050;SDS011;63628;47.656;11.310;2023-12-20T08:56:35;1.73;;;0.70;;
75050;SDS011;63628;47.656;11.310;2023-12-20T08:59:02;1.53;;;0.60;;
75050;SDS011;63628;47.656;11.310;2023-12-20T09:01:29;1.10;;;0.67;;
75050;SDS011;63628;47.656;11.310;2023-12-20T09:03:56;2.83;;;1.00;;
75050;SDS011;63628;47.656;11.310;2023-12-20T09:06:22;0.40;;;0.40;;
75050;SDS011;63628;47.656;11.310;2023-12-20T09:08:49;1.93;;;0.80;;
75050;SDS011;63628;47.656;11.310;2023-12-20T09:11:16;1.83;;;0.80;;
75050;SDS011;63628;47.656;11.310;2023-12-20T09:13:45;2.07;;;0.90;;
75050;SDS011;63628;47.656;11.310;2023-12-20T09:16:12;4.90;;;2.93;;
75050;SDS011;63628;47.656;11.310;2023-12-20T09:18:40;2.53;;;1.53;;
75050;SDS011;63628;47.656;11.310;2023-12-20T09:21:06;2.90;;;1.90;;
75050;SDS011;63628;47.656;11.310;2023-12-20T09:23:33;2.93;;;1.40;;
75050;SDS011;63628;47.656;11.310;2023-12-20T09:25:59;3.73;;;2.57;;
75050;SDS011;63628;47.656;11.310;2023-12-20T09:28:26;1.47;;;1.17;;
75050;SDS011;63628;47.656;11.310;2023-12-20T09:30:54;1.13;;;0.80;;
75050;SDS011;63628;47.656;11.310;2023-12-20T09:33:21;1.10;;;0.70;;
75050;SDS011;63628;47.656;11.310;2023-12-20T09:35:48;1.57;;;1.13;;
75050;SDS011;63628;47.656;11.310;2023-12-20T09:38:15;3.07;;;1.73;;
75050;SDS011;63628;47.656;11.310;2023-12-20T09:40:43;4.77;;;3.03;;
75050;SDS011;63628;47.656;11.310;2023-12-20T09:43:11;3.07;;;1.50;;
75050;SDS011;63628;47.656;11.310;2023-12-20T09:45:41;13.50;;;5.87;;
75050;SDS011;63628;47.656;11.310;2023-12-20T09:48:13;15.47;;;7.17;;
75050;SDS011;63628;47.656;11.310;2023-12-20T09:50:43;6.17;;;2.87;;
75050;SDS011;63628;47.656;11.310;2023-12-20T09:53:17;2.00;;;1.07;;
75050;SDS011;63628;47.656;11.310;2023-12-20T09:55:45;3.37;;;2.10;;
75050;SDS011;63628;47.656;11.310;2023-12-20T09:58:12;7.40;;;3.17;;
75050;SDS011;63628;47.656;11.310;2023-12-20T10:00:39;7.13;;;2.50;;
75050;SDS011;63628;47.656;11.310;2023-12-20T10:03:06;1.70;;;1.00;;
75050;SDS011;63628;47.656;11.310;2023-12-20T10:05:35;2.20;;;1.27;;
75050;SDS011;63628;47.656;11.310;2023-12-20T10:08:02;2.30;;;0.90;;
75050;SDS011;63628;47.656;11.310;2023-12-20T10:10:29;2.07;;;1.20;;
75050;SDS011;63628;47.656;11.310;2023-12-20T10:13:10;2.67;;;1.10;;
75050;SDS011;63628;47.656;11.310;2023-12-20T10:15:38;5.33;;;2.23;;
75050;SDS011;63628;47.656;11.310;2023-12-20T10:18:05;4.00;;;1.73;;
75050;SDS011;63628;47.656;11.310;2023-12-20T10:20:34;4.97;;;2.27;;
75050;SDS011;63628;47.656;11.310;2023-12-20T10:23:01;2.00;;;1.20;;
75050;SDS011;63628;47.656;11.310;2023-12-20T10:25:28;5.37;;;2.60;;
75050;SDS011;63628;47.656;11.310;2023-12-20T10:28:08;6.17;;;2.80;;
75050;SDS011;63628;47.656;11.310;2023-12-20T10:30:36;3.17;;;1.40;;
75050;SDS011;63628;47.656;11.310;2023-12-20T10:33:04;2.17;;;1.20;;
75050;SDS011;63628;47.656;11.310;2023-12-20T10:35:32;1.90;;;1.13;;
75050;SDS011;63628;47.656;11.310;2023-12-20T10:38:01;2.80;;;1.27;;
75050;SDS011;63628;47.656;11.310;2023-12-20T10:40:31;3.27;;;1.70;;
75050;SDS011;63628;47.656;11.310;2023-12-20T10:43:01;4.70;;;2.13;;
75050;SDS011;63628;47.656;11.310;2023-12-20T10:45:28;4.37;;;1.63;;
75050;SDS011;63628;47.656;11.310;2023-12-20T10:47:55;2.53;;;2.13;;
75050;SDS011;63628;47.656;11.310;2023-12-20T10:50:23;2.13;;;1.30;;
75050;SDS011;63628;47.656;11.310;2023-12-20T10:52:50;3.80;;;1.00;;
75050;SDS011;63628;47.656;11.310;2023-12-20T10:55:23;1.60;;;0.40;;
75050;SDS011;63628;47.656;11.310;2023-12-20T10:57:50;1.57;;;1.00;;
75050;SDS011;63628;47.656;11.310;2023-12-20T11:00:19;0.80;;;0.47;;
75050;SDS011;63628;47.656;11.310;2023-12-20T11:02:48;0.20;;;0.20;;
75050;SDS011;63628;47.656;11.310;2023-12-20T11:05:25;0.47;;;0.20;;
75050;SDS011;63628;47.656;11.310;2023-12-20T11:08:01;0.27;;;0.10;;
75050;SDS011;63628;47.656;11.310;2023-12-20T11:10:36;1.63;;;0.67;;
75050;SDS011;63628;47.656;11.310;2023-12-20T11:13:10;1.23;;;0.63;;
75050;SDS011;63628;47.656;11.310;2023-12-20T11:15:43;0.73;;;0.40;;
75050;SDS011;63628;47.656;11.310;2023-12-20T11:18:10;0.93;;;0.50;;
75050;SDS011;63628;47.656;11.310;2023-12-20T11:20:37;1.83;;;0.63;;
75050;SDS011;63628;47.656;11.310;2023-12-20T11:23:05;0.47;;;0.30;;
75050;SDS011;63628;47.656;11.310;2023-12-20T11:25:46;0.73;;;0.30;;
75050;SDS011;63628;47.656;11.310;2023-12-20T11:28:14;0.00;;;0.00;;
75050;SDS011;63628;47.656;11.310;2023-12-20T11:30:41;0.70;;;0.37;;
75050;SDS011;63628;47.656;11.310;2023-12-20T11:33:12;0.53;;;0.40;;
75050;SDS011;63628;47.656;11.310;2023-12-20T11:35:39;1.60;;;0.23;;
75050;SDS011;63628;47.656;11.310;2023-12-20T11:38:07;1.47;;;0.30;;
75050;SDS011;63628;47.656;11.310;2023-12-20T11:40:34;1.37;;;0.20;;
75050;SDS011;63628;47.656;11.310;2023-12-20T11:43:03;0.30;;;0.20;;
75050;SDS011;63628;47.656;11.310;2023-12-20T11:45:31;1.27;;;0.80;;
75050;SDS011;63628;47.656;11.310;2023-12-20T11:47:58;0.37;;;0.10;;
75050;SDS011;63628;47.656;11.310;2023-12-20T11:50:25;1.03;;;0.80;;
75050;SDS011;63628;47.656;11.310;2023-12-20T11:52:53;0.20;;;0.10;;
75050;SDS011;63628;47.656;11.310;2023-12-20T11:55:21;1.13;;;0.47;;
75050;SDS011;63628;47.656;11.310;2023-12-20T11:57:48;0.47;;;0.30;;
75050;SDS011;63628;47.656;11.310;2023-12-20T12:00:18;0.20;;;0.00;;
75050;SDS011;63628;47.656;11.310;2023-12-20T12:02:54;0.20;;;0.10;;
75050;SDS011;63628;47.656;11.310;2023-12-20T12:05:21;0.30;;;0.10;;
75050;SDS011;63628;47.656;11.310;2023-12-20T12:07:51;0.25;;;0.20;;
75050;SDS011;63628;47.656;11.310;2023-12-20T12:10:17;0.47;;;0.10;;
75050;SDS011;63628;47.656;11.310;2023-12-20T12:12:44;0.77;;;0.40;;
75050;SDS011;63628;47.656;11.310;2023-12-20T12:15:11;0.20;;;0.20;;
75050;SDS011;63628;47.656;11.310;2023-12-20T12:17:40;0.60;;;0.20;;
75050;SDS011;63628;47.656;11.310;2023-12-20T12:20:07;0.73;;;0.20;;
75050;SDS011;63628;47.656;11.310;2023-12-20T12:22:36;0.40;;;0.30;;
75050;SDS011;63628;47.656;11.310;2023-12-20T12:25:09;0.60;;;0.30;;
75050;SDS011;63628;47.656;11.310;2023-12-20T12:27:39;0.07;;;0.00;;
75050;SDS011;63628;47.656;11.310;2023-12-20T12:30:07;0.00;;;0.00;;
75050;SDS011;63628;47.656;11.310;2023-12-20T12:32:36;0.00;;;0.00;;
75050;SDS011;63628;47.656;11.310;2023-12-20T12:35:05;0.37;;;0.13;;
75050;SDS011;63628;47.656;11.310;2023-12-20T12:37:33;0.40;;;0.20;;
75050;SDS011;63628;47.656;11.310;2023-12-20T12:40:03;1.13;;;0.20;;
75050;SDS011;63628;47.656;11.310;2023-12-20T12:44:58;0.43;;;0.20;;
75050;SDS011;63628;47.656;11.310;2023-12-20T12:47:24;0.23;;;0.20;;
75050;SDS011;63628;47.656;11.310;2023-12-20T12:49:51;0.10;;;0.10;;
75050;SDS011;63628;47.656;11.310;2023-12-20T12:52:21;0.10;;;0.00;;
75050;SDS011;63628;47.656;11.310;2023-12-20T12:54:47;0.40;;;0.10;;
75050;SDS011;63628;47.656;11.310;2023-12-20T12:57:15;0.10;;;0.10;;
75050;SDS011;63628;47.656;11.310;2023-12-20T12:59:42;0.33;;;0.10;;
75050;SDS011;63628;47.656;11.310;2023-12-20T13:02:10;0.30;;;0.10;;
75050;SDS011;63628;47.656;11.310;2023-12-20T13:04:36;0.40;;;0.10;;
75050;SDS011;63628;47.656;11.310;2023-12-20T13:07:03;0.17;;;0.10;;
75050;SDS011;63628;47.656;11.310;2023-12-20T13:09:32;0.47;;;0.20;;
75050;SDS011;63628;47.656;11.310;2023-12-20T13:11:58;0.10;;;0.10;;
75050;SDS011;63628;47.656;11.310;2023-12-20T13:14:25;0.10;;;0.10;;
75050;SDS011;63628;47.656;11.310;2023-12-20T13:16:52;0.33;;;0.27;;
75050;SDS011;63628;47.656;11.310;2023-12-20T13:19:19;0.43;;;0.20;;
75050;SDS011;63628;47.656;11.310;2023-12-20T13:21:45;0.60;;;0.20;;
75050;SDS011;63628;47.656;11.310;2023-12-20T13:24:12;0.30;;;0.20;;
75050;SDS011;63628;47.656;11.310;2023-12-20T13:26:40;2.67;;;0.30;;
75050;SDS011;63628;47.656;11.310;2023-12-20T13:29:07;1.67;;;0.30;;
75050;SDS011;63628;47.656;11.310;2023-12-20T13:31:33;0.33;;;0.20;;
75050;SDS011;63628;47.656;11.310;2023-12-20T13:34:03;0.40;;;0.22;;
75050;SDS011;63628;47.656;11.310;2023-12-20T13:36:29;0.77;;;0.40;;
75050;SDS011;63628;47.656;11.310;2023-12-20T13:38:56;0.90;;;0.60;;
75050;SDS011;63628;47.656;11.310;2023-12-20T13:41:23;1.93;;;0.20;;
75050;SDS011;63628;47.656;11.310;2023-12-20T13:43:51;0.20;;;0.20;;
75050;SDS011;63628;47.656;11.310;2023-12-20T13:46:18;0.87;;;0.50;;
75050;SDS011;63628;47.656;11.310;2023-12-20T13:48:44;0.23;;;0.20;;
75050;SDS011;63628;47.656;11.310;2023-12-20T13:51:11;0.40;;;0.40;;
75050;SDS011;63628;47.656;11.310;2023-12-20T13:53:38;0.40;;;0.30;;
75050;SDS011;63628;47.656;11.310;2023-12-20T13:56:05;0.57;;;0.30;;
75050;SDS011;63628;47.656;11.310;2023-12-20T13:58:32;0.40;;;0.30;;
75050;SDS011;63628;47.656;11.310;2023-12-20T14:01:04;0.50;;;0.30;;
75050;SDS011;63628;47.656;11.310;2023-12-20T14:03:30;0.23;;;0.20;;
75050;SDS011;63628;47.656;11.310;2023-12-20T14:05:57;0.70;;;0.30;;
75050;SDS011;63628;47.656;11.310;2023-12-20T14:08:24;0.20;;;0.20;;
75050;SDS011;63628;47.656;11.310;2023-12-20T14:10:51;0.63;;;0.60;;
75050;SDS011;63628;47.656;11.310;2023-12-20T14:13:18;0.60;;;0.40;;
75050;SDS011;63628;47.656;11.310;2023-12-20T14:15:45;0.50;;;0.30;;
75050;SDS011;63628;47.656;11.310;2023-12-20T14:18:14;0.53;;;0.43;;
75050;SDS011;63628;47.656;11.310;2023-12-20T14:20:41;1.83;;;0.50;;
75050;SDS011;63628;47.656;11.310;2023-12-20T14:23:08;0.40;;;0.40;;
75050;SDS011;63628;47.656;11.310;2023-12-20T14:25:39;1.43;;;0.60;;
75050;SDS011;63628;47.656;11.310;2023-12-20T14:28:17;0.70;;;0.43;;
75050;SDS011;63628;47.656;11.310;2023-12-20T14:30:44;1.00;;;0.50;;
75050;SDS011;63628;47.656;11.310;2023-12-20T14:33:10;0.93;;;0.50;;
75050;SDS011;63628;47.656;11.310;2023-12-20T14:35:39;0.60;;;0.50;;
75050;SDS011;63628;47.656;11.310;2023-12-20T14:38:09;1.10;;;0.60;;
75050;SDS011;63628;47.656;11.310;2023-12-20T14:40:36;0.57;;;0.50;;